createdAt,value
2019-01-15T00:00:40.438Z,0.50
2019-01-15T00:03:13.127Z,0.50
2019-01-15T00:05:45.536Z,0.50
2019-01-15T00:08:17.930Z,0.50
2019-01-15T00:10:50.382Z,0.50
2019-01-15T00:13:22.598Z,0.50
2019-01-15T00:15:55.218Z,0.50
2019-01-15T00:18:29.313Z,0.50
2019-01-15T00:21:03.279Z,0.50
2019-01-15T00:23:43.085Z,0.50
2019-01-15T00:26:15.610Z,0.50
2019-01-15T00:28:48.052Z,0.50
2019-01-15T00:31:20.497Z,0.50
2019-01-15T00:33:54.493Z,0.40
2019-01-15T00:36:26.938Z,0.50
2019-01-15T00:38:59.530Z,0.40
2019-01-15T00:41:31.829Z,0.50
2019-01-15T00:44:04.595Z,0.50
2019-01-15T00:46:48.016Z,0.60
2019-01-15T00:49:20.576Z,0.60
2019-01-15T00:51:53.142Z,0.50
2019-01-15T00:54:25.651Z,0.60
2019-01-15T00:56:58.093Z,0.50
2019-01-15T00:59:30.568Z,0.50
2019-01-15T01:02:03.200Z,0.60
2019-01-15T01:04:35.606Z,0.50
2019-01-15T01:07:08.194Z,0.50
2019-01-15T01:09:40.707Z,0.50
2019-01-15T01:12:13.100Z,0.60
2019-01-15T01:14:45.839Z,0.50
2019-01-15T01:17:18.245Z,0.60
2019-01-15T01:19:52.113Z,0.60
2019-01-15T01:22:24.830Z,0.60
2019-01-15T01:24:57.287Z,0.60
2019-01-15T01:27:50.972Z,0.60
2019-01-15T01:30:24.770Z,0.50
2019-01-15T01:32:58.632Z,0.50
2019-01-15T01:35:31.574Z,0.60
2019-01-15T01:38:04.209Z,0.60
2019-01-15T01:40:36.691Z,0.60
2019-01-15T01:43:09.117Z,0.50
2019-01-15T01:45:41.411Z,0.50
2019-01-15T01:48:13.783Z,0.50
2019-01-15T01:50:46.420Z,0.50
2019-01-15T01:53:19.047Z,0.50
2019-01-15T01:55:51.521Z,0.50
2019-01-15T01:58:24.253Z,0.60
2019-01-15T02:00:57.099Z,0.50
2019-01-15T02:03:29.338Z,0.50
2019-01-15T02:06:01.828Z,0.60
2019-01-15T02:08:34.181Z,0.70
2019-01-15T02:11:06.836Z,0.70
2019-01-15T02:13:39.072Z,0.70
2019-01-15T02:16:11.543Z,0.70
2019-01-15T02:18:43.813Z,0.70
2019-01-15T02:21:16.105Z,0.70
2019-01-15T02:23:48.627Z,0.70
2019-01-15T02:26:20.916Z,0.70
2019-01-15T02:28:53.335Z,0.70
2019-01-15T02:31:25.860Z,0.80
2019-01-15T02:33:58.314Z,0.80
2019-01-15T02:36:30.724Z,0.80
2019-01-15T02:39:04.939Z,0.80
2019-01-15T02:41:37.544Z,0.70
2019-01-15T02:44:10.315Z,0.70
2019-01-15T02:46:59.935Z,0.80
2019-01-15T02:49:32.268Z,0.80
2019-01-15T02:52:20.232Z,0.80
2019-01-15T02:54:52.677Z,0.80
2019-01-15T02:57:24.960Z,0.70
2019-01-15T02:59:57.433Z,0.80
2019-01-15T03:02:29.703Z,0.90
2019-01-15T03:05:02.140Z,0.80
2019-01-15T03:07:34.567Z,0.70
2019-01-15T03:10:08.979Z,0.70
2019-01-15T03:12:43.139Z,0.70
2019-01-15T03:15:15.887Z,0.80
2019-01-15T03:17:48.235Z,0.70
2019-01-15T03:20:20.612Z,0.70
2019-01-15T03:22:53.296Z,0.80
2019-01-15T03:25:25.790Z,0.80
2019-01-15T03:27:58.227Z,0.90
2019-01-15T03:30:30.803Z,0.90
2019-01-15T03:33:03.350Z,0.80
2019-01-15T03:35:35.789Z,0.80
2019-01-15T03:38:07.878Z,0.80
2019-01-15T03:40:40.611Z,0.80
2019-01-15T03:43:12.978Z,0.80
2019-01-15T03:45:45.192Z,0.90
2019-01-15T03:48:17.408Z,0.90
2019-01-15T03:50:50.734Z,0.90
2019-01-15T03:53:23.140Z,0.90
2019-01-15T03:55:55.617Z,0.90
2019-01-15T03:58:28.102Z,0.90
2019-01-15T04:01:00.353Z,0.90
2019-01-15T04:03:32.908Z,0.80
2019-01-15T04:06:05.523Z,0.80
2019-01-15T04:08:38.016Z,0.80
2019-01-15T04:11:12.064Z,0.80
2019-01-15T04:13:44.644Z,0.80
2019-01-15T04:16:16.913Z,0.90
2019-01-15T04:18:50.447Z,0.90
2019-01-15T04:21:22.950Z,0.90
2019-01-15T04:23:55.471Z,0.90
2019-01-15T04:26:27.939Z,0.90
2019-01-15T04:29:00.481Z,1.00
2019-01-15T04:31:33.052Z,1.00
2019-01-15T04:34:05.757Z,0.90
2019-01-15T04:36:38.106Z,0.90
2019-01-15T04:39:10.696Z,0.90
2019-01-15T04:41:42.954Z,0.90
2019-01-15T04:44:15.329Z,0.90
2019-01-15T04:46:47.968Z,0.90
2019-01-15T04:49:20.283Z,0.90
2019-01-15T04:51:52.643Z,0.90
2019-01-15T04:54:24.889Z,1.00
2019-01-15T04:56:57.820Z,1.10
2019-01-15T04:59:30.856Z,1.10
2019-01-15T05:02:03.354Z,1.10
2019-01-15T05:04:36.048Z,1.20
2019-01-15T05:07:08.645Z,1.20
2019-01-15T05:09:41.060Z,1.30
2019-01-15T05:12:13.468Z,1.30
2019-01-15T05:14:45.913Z,1.40
2019-01-15T05:17:18.436Z,1.40
2019-01-15T05:19:50.850Z,1.40
2019-01-15T05:22:23.389Z,1.50
2019-01-15T05:24:55.910Z,1.50
2019-01-15T05:27:28.481Z,1.60
2019-01-15T05:30:00.488Z,1.50
2019-01-15T05:32:32.929Z,1.60
2019-01-15T05:35:05.803Z,1.70
2019-01-15T05:37:38.589Z,1.70
2019-01-15T05:40:12.068Z,1.60
2019-01-15T05:42:44.572Z,1.60
2019-01-15T05:45:39.019Z,1.60
2019-01-15T05:48:30.381Z,1.70
2019-01-15T05:51:31.160Z,1.70
2019-01-15T05:54:03.536Z,1.80
2019-01-15T05:56:36.181Z,1.80
2019-01-15T05:59:08.724Z,1.90
2019-01-15T06:01:41.090Z,1.90
2019-01-15T06:04:13.661Z,2.00
2019-01-15T06:06:46.189Z,1.90
2019-01-15T06:09:18.482Z,1.90
2019-01-15T06:11:50.732Z,1.90
2019-01-15T06:14:23.023Z,1.90
2019-01-15T06:16:55.247Z,1.90
2019-01-15T06:19:27.692Z,1.90
2019-01-15T06:22:00.282Z,1.90
2019-01-15T06:24:33.044Z,1.90
2019-01-15T06:27:05.423Z,2.00
2019-01-15T06:29:37.910Z,1.90
2019-01-15T06:32:12.176Z,1.90
2019-01-15T06:34:44.580Z,2.10
2019-01-15T06:37:17.231Z,2.10
2019-01-15T06:39:49.521Z,2.00
2019-01-15T06:42:34.178Z,2.00
2019-01-15T06:45:10.514Z,2.00
2019-01-15T06:47:43.374Z,2.00
2019-01-15T06:50:16.889Z,2.10
2019-01-15T06:52:49.195Z,2.10
2019-01-15T06:55:21.827Z,2.30
2019-01-15T06:57:54.384Z,2.20
2019-01-15T07:00:28.633Z,2.20
2019-01-15T07:03:01.781Z,2.10
2019-01-15T07:05:34.423Z,2.20
2019-01-15T07:08:07.003Z,2.20
2019-01-15T07:10:41.167Z,2.20
2019-01-15T07:13:13.860Z,2.20
2019-01-15T07:15:46.315Z,2.20
2019-01-15T07:18:18.879Z,2.20
2019-01-15T07:20:51.494Z,2.20
2019-01-15T07:23:24.042Z,2.20
2019-01-15T07:25:56.400Z,2.40
2019-01-15T07:28:28.860Z,2.40
2019-01-15T07:31:02.270Z,2.40
2019-01-15T07:33:34.793Z,2.40
2019-01-15T07:36:07.142Z,2.40
2019-01-15T07:38:39.730Z,2.30
2019-01-15T07:41:12.431Z,2.30
2019-01-15T07:43:44.940Z,2.40
2019-01-15T07:46:17.407Z,2.50
2019-01-15T07:48:49.854Z,2.50
2019-01-15T07:51:22.468Z,2.50
2019-01-15T07:53:55.036Z,2.50
2019-01-15T07:56:27.567Z,2.60
2019-01-15T07:59:11.110Z,2.70
2019-01-15T08:01:44.226Z,2.80
2019-01-15T08:04:16.667Z,2.90
2019-01-15T08:06:49.162Z,3.00
2019-01-15T08:09:21.757Z,3.00
2019-01-15T08:11:54.340Z,3.00
2019-01-15T08:14:26.843Z,3.20
2019-01-15T08:16:59.338Z,3.30
2019-01-15T08:19:31.996Z,3.40
2019-01-15T08:22:04.690Z,3.50
2019-01-15T08:24:38.857Z,3.60
2019-01-15T08:27:11.305Z,3.50
2019-01-15T08:29:46.363Z,3.50
2019-01-15T08:32:19.225Z,3.50
2019-01-15T08:34:51.855Z,3.60
2019-01-15T08:37:24.535Z,3.60
2019-01-15T08:39:56.913Z,3.70
2019-01-15T08:42:29.274Z,3.70
2019-01-15T08:45:01.981Z,3.60
2019-01-15T08:47:36.398Z,3.40
2019-01-15T08:50:11.623Z,3.40
2019-01-15T08:52:56.360Z,3.50
2019-01-15T08:55:35.916Z,3.40
2019-01-15T08:58:08.233Z,3.30
2019-01-15T09:00:40.741Z,3.30
2019-01-15T09:03:13.083Z,3.30
2019-01-15T09:05:45.596Z,3.20
2019-01-15T09:08:17.988Z,3.30
2019-01-15T09:10:50.220Z,3.20
2019-01-15T09:13:22.740Z,3.20
2019-01-15T09:15:55.319Z,3.30
2019-01-15T09:18:28.835Z,3.30
2019-01-15T09:21:01.187Z,3.20
2019-01-15T09:23:33.793Z,3.30
2019-01-15T09:26:06.193Z,3.30
2019-01-15T09:28:38.465Z,3.30
2019-01-15T09:31:10.938Z,3.40
2019-01-15T09:33:43.562Z,3.40
2019-01-15T09:36:15.934Z,3.40
2019-01-15T09:38:48.588Z,3.40
2019-01-15T09:41:21.637Z,3.40
2019-01-15T09:43:55.225Z,3.40
2019-01-15T09:46:27.923Z,3.40
2019-01-15T09:49:00.463Z,3.50
2019-01-15T09:51:33.078Z,3.40
2019-01-15T09:54:05.844Z,3.40
2019-01-15T09:56:38.084Z,3.40
2019-01-15T09:59:10.324Z,3.40
2019-01-15T10:01:42.758Z,3.60
2019-01-15T10:04:15.240Z,3.70
2019-01-15T10:06:47.663Z,3.80
2019-01-15T10:09:20.188Z,3.80
2019-01-15T10:11:52.541Z,3.80
2019-01-15T10:14:25.016Z,3.90
2019-01-15T10:16:57.486Z,3.90
2019-01-15T10:19:30.025Z,3.90
2019-01-15T10:22:02.469Z,4.00
2019-01-15T10:24:35.039Z,4.00
2019-01-15T10:27:07.818Z,4.00
2019-01-15T10:29:40.360Z,4.00
2019-01-15T10:32:47.368Z,4.00
2019-01-15T10:35:52.061Z,3.90
2019-01-15T10:38:25.584Z,3.90
2019-01-15T10:40:59.791Z,4.00
2019-01-15T10:43:34.271Z,4.00
2019-01-15T10:46:07.913Z,3.90
2019-01-15T10:48:40.337Z,3.80
2019-01-15T10:51:12.666Z,3.80
2019-01-15T10:53:44.916Z,3.90
2019-01-15T10:56:17.532Z,3.90
2019-01-15T10:58:49.959Z,4.00
2019-01-15T11:01:22.339Z,4.10
2019-01-15T11:03:54.653Z,4.10
2019-01-15T11:06:27.893Z,4.10
2019-01-15T11:09:00.688Z,4.10
2019-01-15T11:11:33.410Z,4.20
2019-01-15T11:14:06.385Z,4.10
2019-01-15T11:16:39.284Z,4.30
2019-01-15T11:19:11.599Z,4.20
2019-01-15T11:21:43.838Z,4.30
2019-01-15T11:24:16.405Z,4.30
2019-01-15T11:26:48.842Z,4.30
2019-01-15T11:29:21.151Z,4.30
2019-01-15T11:31:53.855Z,4.30
2019-01-15T11:34:41.390Z,4.40
2019-01-15T11:37:13.739Z,4.50
2019-01-15T11:39:46.141Z,4.50
2019-01-15T11:42:18.461Z,4.60
2019-01-15T11:44:51.006Z,4.70
2019-01-15T11:47:23.356Z,4.70
2019-01-15T11:49:55.859Z,4.70
2019-01-15T11:52:28.283Z,4.70
2019-01-15T11:55:00.706Z,4.80
2019-01-15T11:57:33.278Z,4.70
2019-01-15T12:00:07.965Z,4.60
2019-01-15T12:03:01.205Z,4.70
2019-01-15T12:05:47.766Z,4.70
2019-01-15T12:08:38.215Z,4.60
2019-01-15T12:11:29.579Z,4.70
2019-01-15T12:14:26.322Z,4.70
2019-01-15T12:17:16.463Z,4.70
2019-01-15T12:20:08.868Z,4.70
2019-01-15T12:23:02.893Z,4.70
2019-01-15T12:25:52.651Z,4.80
2019-01-15T12:28:56.046Z,4.70
2019-01-15T12:31:44.392Z,4.70
2019-01-15T12:34:35.524Z,4.60
2019-01-15T12:37:21.675Z,4.60
2019-01-15T12:40:17.022Z,4.50
2019-01-15T12:43:36.527Z,4.60
2019-01-15T12:46:26.887Z,4.70
2019-01-15T12:49:21.094Z,4.70
2019-01-15T12:52:22.993Z,4.80
2019-01-15T12:55:14.354Z,4.80
2019-01-15T12:58:05.738Z,4.90
2019-01-15T13:00:59.994Z,5.00
2019-01-15T13:03:49.603Z,5.00
2019-01-15T13:06:39.580Z,5.00
2019-01-15T13:09:41.369Z,5.00
2019-01-15T13:12:31.775Z,5.10
2019-01-15T13:15:34.813Z,5.10
2019-01-15T13:18:26.215Z,5.00
2019-01-15T13:21:17.626Z,5.10
2019-01-15T13:24:24.150Z,5.00
2019-01-15T13:27:15.391Z,4.90
2019-01-15T13:30:16.715Z,4.90
2019-01-15T13:33:06.830Z,4.90
2019-01-15T13:36:13.122Z,4.90
2019-01-15T13:39:02.206Z,5.00
2019-01-15T13:41:48.071Z,5.00
2019-01-15T13:44:38.149Z,4.90
2019-01-15T13:47:31.647Z,5.00
2019-01-15T13:50:22.552Z,5.00
2019-01-15T13:53:16.808Z,4.90
2019-01-15T13:56:09.472Z,4.90
2019-01-15T13:59:00.869Z,4.90
2019-01-15T14:01:50.963Z,4.90
2019-01-15T14:05:00.698Z,4.80
2019-01-15T14:07:47.440Z,4.70
2019-01-15T14:10:31.936Z,4.70
2019-01-15T14:13:22.106Z,4.70
2019-01-15T14:16:15.156Z,4.70
2019-01-15T14:18:58.466Z,4.70
2019-01-15T14:21:48.339Z,4.70
2019-01-15T14:24:31.293Z,4.70
2019-01-15T14:27:21.294Z,4.80
2019-01-15T14:30:15.313Z,4.70
2019-01-15T14:33:05.077Z,4.70
2019-01-15T14:36:09.001Z,4.80
2019-01-15T14:38:59.017Z,4.70
2019-01-15T14:41:59.288Z,4.80
2019-01-15T14:44:49.212Z,4.80
2019-01-15T14:47:58.634Z,4.80
2019-01-15T14:50:49.092Z,4.80
2019-01-15T14:53:39.024Z,4.80
2019-01-15T14:56:32.909Z,4.70
2019-01-15T14:59:36.272Z,4.70
2019-01-15T15:02:36.763Z,4.70
2019-01-15T15:05:31.334Z,4.80
2019-01-15T15:08:22.555Z,4.80
2019-01-15T15:11:23.486Z,4.80
2019-01-15T15:14:23.661Z,4.80
2019-01-15T15:17:13.336Z,4.80
2019-01-15T15:20:04.326Z,4.80
2019-01-15T15:23:00.153Z,4.70
2019-01-15T15:25:45.660Z,4.70
2019-01-15T15:28:35.410Z,4.70
2019-01-15T15:31:32.934Z,4.70
2019-01-15T15:34:36.331Z,4.70
2019-01-15T15:37:26.628Z,4.70
2019-01-15T15:40:16.514Z,4.70
2019-01-15T15:43:07.989Z,4.70
2019-01-15T15:46:11.172Z,4.70
2019-01-15T15:48:56.831Z,4.60
2019-01-15T15:51:48.102Z,4.60
2019-01-15T15:54:48.615Z,4.60
2019-01-15T15:57:40.348Z,4.60
2019-01-15T16:00:44.046Z,4.60
2019-01-15T16:03:38.639Z,4.70
2019-01-15T16:06:29.801Z,4.70
2019-01-15T16:09:32.862Z,4.70
2019-01-15T16:12:23.682Z,4.70
2019-01-15T16:15:24.324Z,4.70
2019-01-15T16:18:10.593Z,4.70
2019-01-15T16:20:52.602Z,4.70
2019-01-15T16:23:55.892Z,4.70
2019-01-15T16:26:56.248Z,4.80
2019-01-15T16:29:46.609Z,4.80
2019-01-15T16:32:49.265Z,4.80
2019-01-15T16:35:46.545Z,4.80
2019-01-15T16:38:34.897Z,4.80
2019-01-15T16:41:24.826Z,4.70
2019-01-15T16:44:23.596Z,4.70
2019-01-15T16:47:09.613Z,4.80
2019-01-15T16:49:53.015Z,4.70
2019-01-15T16:52:44.833Z,4.80
2019-01-15T16:55:35.148Z,4.80
2019-01-15T16:58:22.044Z,4.80
2019-01-15T17:01:12.235Z,4.70
2019-01-15T17:04:02.160Z,4.70
2019-01-15T17:06:53.474Z,4.80
2019-01-15T17:09:43.479Z,4.80
2019-01-15T17:13:00.532Z,4.80
2019-01-15T17:15:50.299Z,4.80
2019-01-15T17:18:45.243Z,4.80
2019-01-15T17:21:36.849Z,4.80
2019-01-15T17:24:34.506Z,4.80
2019-01-15T17:27:31.052Z,4.90
2019-01-15T17:30:44.899Z,4.80
2019-01-15T17:33:41.537Z,4.90
2019-01-15T17:36:31.943Z,4.90
2019-01-15T17:39:34.202Z,4.90
2019-01-15T17:42:35.031Z,4.90
2019-01-15T17:45:27.399Z,4.80
2019-01-15T17:48:28.638Z,4.80
2019-01-15T17:51:38.673Z,4.90
2019-01-15T17:54:38.287Z,4.90
2019-01-15T17:57:45.103Z,4.80
2019-01-15T18:00:40.229Z,4.90
2019-01-15T18:03:43.794Z,4.90
2019-01-15T18:06:34.187Z,5.00
2019-01-15T18:09:28.108Z,4.90
2019-01-15T18:12:18.675Z,4.90
2019-01-15T18:15:08.862Z,4.90
2019-01-15T18:18:03.060Z,4.90
2019-01-15T18:21:04.741Z,4.90
2019-01-15T18:24:08.436Z,5.00
2019-01-15T18:26:59.899Z,5.00
2019-01-15T18:29:51.229Z,5.00
2019-01-15T18:32:41.170Z,5.00
2019-01-15T18:35:35.818Z,4.90
2019-01-15T18:38:24.524Z,5.00
2019-01-15T18:41:14.712Z,4.90
2019-01-15T18:44:06.615Z,4.90
2019-01-15T18:46:57.930Z,4.90
2019-01-15T18:49:52.369Z,4.90
2019-01-15T18:52:53.632Z,5.00
2019-01-15T18:55:43.502Z,5.00
2019-01-15T18:58:50.178Z,4.90
2019-01-15T19:01:38.202Z,4.90
2019-01-15T19:04:35.266Z,4.90
2019-01-15T19:07:40.230Z,4.90
2019-01-15T19:10:43.424Z,4.80
2019-01-15T19:13:32.228Z,4.80
2019-01-15T19:16:26.975Z,4.90
2019-01-15T19:19:17.466Z,5.00
2019-01-15T19:22:26.994Z,4.90
2019-01-15T19:25:20.545Z,4.80
2019-01-15T19:28:11.841Z,4.90
2019-01-15T19:31:09.218Z,4.90
2019-01-15T19:34:06.703Z,4.90
2019-01-15T19:37:17.748Z,4.90
2019-01-15T19:40:07.452Z,4.90
2019-01-15T19:42:48.862Z,4.90
2019-01-15T19:45:38.741Z,4.90
2019-01-15T19:48:28.597Z,4.90
2019-01-15T19:51:20.209Z,4.90
2019-01-15T19:54:23.383Z,5.00
2019-01-15T19:57:30.167Z,5.00
2019-01-15T20:00:21.565Z,4.90
2019-01-15T20:03:16.928Z,4.90
2019-01-15T20:06:04.235Z,4.90
2019-01-15T20:08:58.279Z,5.00
2019-01-15T20:11:55.497Z,4.90
2019-01-15T20:14:46.733Z,4.80
2019-01-15T20:17:32.096Z,4.80
2019-01-15T20:20:22.728Z,4.90
2019-01-15T20:23:28.793Z,4.90
2019-01-15T20:26:38.484Z,4.90
2019-01-15T20:29:39.024Z,4.80
2019-01-15T20:32:36.491Z,4.80
2019-01-15T20:35:37.689Z,4.80
2019-01-15T20:38:26.593Z,4.80
2019-01-15T20:41:17.391Z,4.90
2019-01-15T20:44:07.401Z,4.90
2019-01-15T20:47:04.464Z,4.80
2019-01-15T20:49:54.550Z,4.80
2019-01-15T20:53:01.128Z,4.80
2019-01-15T20:55:57.639Z,4.70
2019-01-15T20:58:56.614Z,4.80
2019-01-15T21:01:36.801Z,4.70
2019-01-15T21:04:40.322Z,4.70
2019-01-15T21:07:37.674Z,4.70
2019-01-15T21:10:31.897Z,4.80
2019-01-15T21:13:27.500Z,4.70
2019-01-15T21:16:24.460Z,4.60
2019-01-15T21:19:21.230Z,4.60
2019-01-15T21:22:14.802Z,4.60
2019-01-15T21:24:58.683Z,4.60
2019-01-15T21:27:41.843Z,4.60
2019-01-15T21:30:52.110Z,4.60
2019-01-15T21:33:42.694Z,4.70
2019-01-15T21:36:39.858Z,4.70
2019-01-15T21:39:37.338Z,4.70
2019-01-15T21:42:27.374Z,4.70
2019-01-15T21:45:24.760Z,4.70
2019-01-15T21:48:08.481Z,4.80
2019-01-15T21:51:17.705Z,4.80
2019-01-15T21:54:15.262Z,4.80
2019-01-15T21:57:15.985Z,4.80
2019-01-15T22:00:07.129Z,4.70
2019-01-15T22:03:05.080Z,4.70
2019-01-15T22:05:56.441Z,4.80
2019-01-15T22:08:51.349Z,4.90
2019-01-15T22:12:00.766Z,4.80
2019-01-15T22:14:55.392Z,4.80
2019-01-15T22:17:49.579Z,4.80
2019-01-15T22:20:39.388Z,4.70
2019-01-15T22:23:29.834Z,4.80
2019-01-15T22:26:20.983Z,4.80
2019-01-15T22:29:13.832Z,4.80
2019-01-15T22:32:13.890Z,4.80
2019-01-15T22:35:03.626Z,4.80
2019-01-15T22:37:53.561Z,4.80
2019-01-15T22:40:48.171Z,4.80
2019-01-15T22:43:42.841Z,4.80
2019-01-15T22:46:39.813Z,4.80
2019-01-15T22:49:32.208Z,4.80
2019-01-15T22:52:28.280Z,4.80
2019-01-15T22:55:14.383Z,4.80
2019-01-15T22:58:20.997Z,4.70
2019-01-15T23:01:14.371Z,4.70
2019-01-15T23:04:13.226Z,4.70
2019-01-15T23:07:03.203Z,4.70
2019-01-15T23:09:58.451Z,4.70
2019-01-15T23:12:42.839Z,4.70
2019-01-15T23:15:34.900Z,4.70
2019-01-15T23:18:32.347Z,4.70
2019-01-15T23:21:39.069Z,4.60
2019-01-15T23:24:28.991Z,4.70
2019-01-15T23:27:18.682Z,4.70
2019-01-15T23:30:08.534Z,4.70
2019-01-15T23:32:58.113Z,4.70
2019-01-15T23:35:43.196Z,4.70
2019-01-15T23:38:49.666Z,4.70
2019-01-15T23:41:39.575Z,4.70
2019-01-15T23:44:27.204Z,4.70
2019-01-15T23:47:27.189Z,4.70
2019-01-15T23:50:23.011Z,4.70
2019-01-15T23:53:14.991Z,4.70
2019-01-15T23:56:04.674Z,4.70
2019-01-15T23:59:04.797Z,4.70
